Daniel Field
KDNL : now visible

Aeroporto :











RITROVATECI SU...

 
LOGIN :

Iscrizione | Disclaimer

   EN    FR    IT 

 









Sommario :    VFR   VFR Marginale   IFR   IFR Intensivo   IFR Molto Intensivo
Visibilità : 
Base nubi : 
>= 8 km
>= 3000ft
5 / 8 km
1000 / 3000 ft
1500m / 5 km
500 / 1000 ft
800 / 1500m
200 / 500 ft
< 800m
< 200 ft
Simboli :   Temporali  Nebbia  Neve Forte  Precipitazioni Forti  Vento > 20 kt






- Altitudine del aeroporto : 423 ft


KDNL - Daniel Field

ULTIMO METAR :
  • 181953Z AUTO 19006KT 10SM BKN033 BKN055 17/08 A3025 RMK AO2 SLP242 T01720083

METARs OBSOLETI :
  • 181853Z AUTO 17008KT 10SM CLR 16/07 A3026 RMK AO2 PRESFR SLP244 T01610072
  • 181753Z AUTO 17006KT 10SM BKN035 OVC100 14/06 A3033 RMK AO2 SLP269 T01390056 10139 20050 58044

TAF KDNL
Valido dal 18 a 18 ore il 19 a 18 ore UTC


181733Z 1818/1918 14008KT P6SM SCT025 BKN035
TEMPO 1820/1824 BKN025
FM190000 16008KT P6SM -SHRA BKN025 OVC050 WS020/20038KT
FM190400 23010G16KT P6SM -SHRA OVC015 WS020/22045KT
FM191200 28010G18KT P6SM SCT035



MetMap, La meteo Aeronautica in un colpo d'occhio ! - Copyright ORBIFLY Dicembre 2007 - Disclaimer

ORBIFLY MET'MAP TEAM :

Programmazione e sviluppo : Alexandra Zaïnal
Concezione : Baudouin d'Aumeries
Aiuto per la programmazione : Marc-Olivier Méhu
Supporto tecnico e logistico : Manuel Goepfert
Aiuto per la traduzione : Arnaldo La Scala

Contatto : metmap@orbifly.com




FONTI E CREDITI :

   NOAA       Earth
Advisory